createdAt,value
2018-01-20T00:01:49.769Z,1.00
2018-01-20T00:04:18.300Z,0.90
2018-01-20T00:06:47.441Z,0.90
2018-01-20T00:09:36.299Z,0.80
2018-01-20T00:12:12.184Z,0.90
2018-01-20T00:14:50.030Z,0.70
2018-01-20T00:17:19.220Z,0.70
2018-01-20T00:19:47.616Z,0.70
2018-01-20T00:22:31.405Z,0.70
2018-01-20T00:25:11.328Z,0.60
2018-01-20T00:27:49.245Z,0.70
2018-01-20T00:30:17.678Z,0.70
2018-01-20T00:32:46.077Z,0.80
2018-01-20T00:35:14.626Z,0.80
2018-01-20T00:37:51.598Z,0.80
2018-01-20T00:40:21.026Z,0.80
2018-01-20T00:43:04.805Z,0.80
2018-01-20T00:45:40.240Z,0.90
2018-01-20T00:48:08.603Z,0.90
2018-01-20T00:50:36.961Z,0.90
2018-01-20T00:53:23.231Z,0.90
2018-01-20T00:55:55.116Z,0.80
2018-01-20T00:58:24.571Z,0.80
2018-01-20T01:00:52.957Z,0.80
2018-01-20T01:03:21.360Z,0.70
2018-01-20T01:05:57.561Z,0.70
2018-01-20T01:08:26.917Z,0.60
2018-01-20T01:10:55.268Z,0.60
2018-01-20T01:13:23.666Z,0.60
2018-01-20T01:15:52.121Z,0.60
2018-01-20T01:18:21.252Z,0.60
2018-01-20T01:20:49.618Z,0.60
2018-01-20T01:23:18.975Z,0.70
2018-01-20T01:25:47.339Z,0.70
2018-01-20T01:28:15.754Z,0.80
2018-01-20T01:30:44.294Z,0.80
2018-01-20T01:33:12.680Z,0.70
2018-01-20T01:35:41.804Z,0.70
2018-01-20T01:38:20.526Z,0.60
2018-01-20T01:40:58.539Z,0.60
2018-01-20T01:43:34.342Z,0.60
2018-01-20T01:46:02.983Z,0.60
2018-01-20T01:48:31.318Z,0.50
2018-01-20T01:50:59.727Z,0.50
2018-01-20T01:53:28.145Z,0.40
2018-01-20T01:55:56.629Z,0.40
2018-01-20T01:58:24.981Z,0.40
2018-01-20T02:00:53.508Z,0.40
2018-01-20T02:03:22.915Z,0.40
2018-01-20T02:05:52.192Z,0.50
2018-01-20T02:08:20.855Z,0.50
2018-01-20T02:10:50.006Z,0.50
2018-01-20T02:13:19.170Z,0.50
2018-01-20T02:15:47.624Z,0.50
2018-01-20T02:18:15.977Z,0.60
2018-01-20T02:20:45.106Z,0.60
2018-01-20T02:23:24.918Z,0.60
2018-01-20T02:25:53.482Z,0.70
2018-01-20T02:28:21.846Z,0.70
2018-01-20T02:30:50.255Z,0.70
2018-01-20T02:33:19.579Z,0.70
2018-01-20T02:35:47.951Z,0.70
2018-01-20T02:38:17.135Z,0.50
2018-01-20T02:40:54.855Z,0.50
2018-01-20T02:43:24.830Z,0.40
2018-01-20T02:45:53.224Z,0.40
2018-01-20T02:48:21.582Z,0.40
2018-01-20T02:50:51.117Z,0.30
2018-01-20T02:53:19.716Z,0.30
2018-01-20T02:55:48.228Z,0.30
2018-01-20T02:58:17.660Z,0.40
2018-01-20T03:00:46.787Z,0.30
2018-01-20T03:03:15.887Z,0.30
2018-01-20T03:05:44.473Z,0.30
2018-01-20T03:08:12.848Z,0.10
2018-01-20T03:10:41.188Z,0.10
2018-01-20T03:13:09.816Z,0.00
2018-01-20T03:15:38.163Z,0.00
2018-01-20T03:18:06.573Z,0.00
2018-01-20T03:20:42.163Z,-0.10
2018-01-20T03:23:10.636Z,-0.10
2018-01-20T03:25:39.280Z,-0.10
2018-01-20T03:28:07.741Z,-0.10
2018-01-20T03:30:36.180Z,-0.10
2018-01-20T03:33:04.554Z,0.00
2018-01-20T03:35:32.924Z,0.00
2018-01-20T03:38:08.794Z,0.00
2018-01-20T03:40:37.252Z,0.10
2018-01-20T03:43:05.633Z,0.10
2018-01-20T03:45:34.006Z,0.10
2018-01-20T03:48:10.241Z,0.10
2018-01-20T03:50:49.009Z,0.10
2018-01-20T03:53:26.086Z,0.10
2018-01-20T03:55:54.506Z,0.10
2018-01-20T03:58:22.915Z,0.00
2018-01-20T04:00:51.278Z,0.10
2018-01-20T04:03:19.872Z,0.00
2018-01-20T04:05:48.223Z,0.10
2018-01-20T04:08:17.340Z,0.10
2018-01-20T04:10:45.786Z,0.10
2018-01-20T04:13:14.169Z,0.10
2018-01-20T04:15:42.510Z,0.10
2018-01-20T04:18:19.514Z,0.10
2018-01-20T04:20:48.098Z,0.10
2018-01-20T04:23:16.464Z,0.10
2018-01-20T04:25:44.890Z,0.20
2018-01-20T04:28:22.262Z,0.20
2018-01-20T04:30:50.760Z,0.20
2018-01-20T04:33:19.115Z,0.20
2018-01-20T04:35:47.472Z,0.20
2018-01-20T04:38:19.404Z,0.20
2018-01-20T04:40:48.686Z,0.20
2018-01-20T04:43:17.095Z,0.20
2018-01-20T04:45:46.304Z,0.20
2018-01-20T04:48:14.667Z,0.20
2018-01-20T04:50:43.032Z,0.20
2018-01-20T04:53:18.712Z,0.20
2018-01-20T04:55:47.944Z,0.20
2018-01-20T04:58:16.278Z,0.20
2018-01-20T05:00:44.684Z,0.20
2018-01-20T05:03:14.095Z,0.30
2018-01-20T05:05:42.447Z,0.30
2018-01-20T05:08:10.830Z,0.30
2018-01-20T05:10:39.458Z,0.30
2018-01-20T05:13:07.857Z,0.30
2018-01-20T05:15:36.192Z,0.30
2018-01-20T05:18:12.370Z,0.30
2018-01-20T05:20:41.594Z,0.20
2018-01-20T05:23:09.993Z,0.20
2018-01-20T05:25:38.402Z,0.20
2018-01-20T05:28:14.381Z,0.20
2018-01-20T05:30:42.976Z,0.10
2018-01-20T05:33:12.145Z,0.10
2018-01-20T05:35:40.557Z,0.20
2018-01-20T05:38:16.104Z,0.20
2018-01-20T05:40:51.949Z,0.20
2018-01-20T05:43:28.814Z,0.30
2018-01-20T05:45:59.216Z,0.30
2018-01-20T05:48:28.520Z,0.30
2018-01-20T05:50:56.969Z,0.30
2018-01-20T05:53:25.587Z,0.20
2018-01-20T05:55:53.965Z,0.30
2018-01-20T05:58:22.342Z,0.30
2018-01-20T06:00:51.221Z,0.30
2018-01-20T06:03:20.505Z,0.40
2018-01-20T06:05:48.950Z,0.40
2018-01-20T06:08:18.952Z,0.40
2018-01-20T06:10:47.372Z,0.50
2018-01-20T06:13:15.783Z,0.50
2018-01-20T06:15:45.161Z,0.60
2018-01-20T06:18:13.530Z,0.50
2018-01-20T06:20:41.917Z,0.60
2018-01-20T06:23:18.229Z,0.70
2018-01-20T06:25:47.694Z,0.60
2018-01-20T06:28:16.064Z,0.60
2018-01-20T06:30:44.461Z,0.60
2018-01-20T06:33:20.793Z,0.60
2018-01-20T06:35:49.435Z,0.50
2018-01-20T06:38:17.837Z,0.60
2018-01-20T06:40:47.523Z,0.60
2018-01-20T06:43:25.334Z,0.60
2018-01-20T06:45:54.483Z,0.70
2018-01-20T06:48:22.897Z,0.70
2018-01-20T06:50:51.266Z,0.60
2018-01-20T06:53:19.622Z,0.60
2018-01-20T06:55:48.069Z,0.50
2018-01-20T06:58:16.452Z,0.50
2018-01-20T07:00:44.868Z,0.50
2018-01-20T07:03:13.520Z,0.50
2018-01-20T07:05:41.890Z,0.40
2018-01-20T07:08:10.240Z,0.40
2018-01-20T07:10:38.859Z,0.50
2018-01-20T07:13:07.406Z,0.40
2018-01-20T07:15:35.789Z,0.50
2018-01-20T07:18:11.980Z,0.50
2018-01-20T07:20:40.421Z,0.50
2018-01-20T07:23:08.834Z,0.60
2018-01-20T07:25:37.231Z,0.60
2018-01-20T07:28:13.253Z,0.50
2018-01-20T07:30:42.510Z,0.60
2018-01-20T07:33:10.914Z,0.60
2018-01-20T07:35:39.388Z,0.60
2018-01-20T07:38:14.957Z,0.70
2018-01-20T07:40:43.615Z,0.70
2018-01-20T07:43:11.960Z,0.70
2018-01-20T07:45:40.312Z,0.60
2018-01-20T07:48:16.618Z,0.50
2018-01-20T07:50:45.062Z,0.50
2018-01-20T07:53:14.220Z,0.50
2018-01-20T07:55:42.593Z,0.50
2018-01-20T07:58:11.040Z,0.60
2018-01-20T08:00:39.439Z,0.60
2018-01-20T08:03:07.842Z,0.60
2018-01-20T08:05:36.343Z,0.70
2018-01-20T08:08:04.723Z,0.80
2018-01-20T08:10:33.950Z,0.80
2018-01-20T08:13:10.221Z,0.90
2018-01-20T08:15:39.537Z,0.90
2018-01-20T08:18:08.715Z,0.90
2018-01-20T08:20:37.060Z,0.90
2018-01-20T08:23:13.311Z,0.80
2018-01-20T08:25:50.146Z,0.90
2018-01-20T08:28:18.675Z,0.80
2018-01-20T08:30:47.075Z,0.80
2018-01-20T08:33:15.436Z,0.80
2018-01-20T08:35:51.443Z,1.00
2018-01-20T08:38:20.674Z,1.10
2018-01-20T08:40:49.843Z,1.10
2018-01-20T08:43:18.243Z,1.10
2018-01-20T08:45:46.872Z,1.20
2018-01-20T08:48:15.266Z,1.20
2018-01-20T08:50:43.967Z,1.40
2018-01-20T08:53:19.441Z,1.60
2018-01-20T08:55:48.265Z,1.70
2018-01-20T08:58:17.396Z,2.00
2018-01-20T09:00:45.818Z,2.00
2018-01-20T09:03:14.232Z,2.10
2018-01-20T09:05:52.408Z,2.40
2018-01-20T09:08:20.985Z,2.40
2018-01-20T09:10:49.352Z,2.30
2018-01-20T09:13:17.774Z,2.20
2018-01-20T09:15:46.382Z,2.30
2018-01-20T09:18:14.742Z,2.20
2018-01-20T09:20:43.110Z,1.90
2018-01-20T09:23:19.611Z,1.90
2018-01-20T09:25:51.715Z,1.90
2018-01-20T09:28:20.944Z,1.90
2018-01-20T09:30:49.575Z,1.90
2018-01-20T09:33:18.184Z,1.90
2018-01-20T09:35:47.721Z,1.90
2018-01-20T09:38:16.342Z,1.90
2018-01-20T09:40:52.159Z,1.90
2018-01-20T09:43:20.570Z,1.90
2018-01-20T09:45:49.360Z,1.90
2018-01-20T09:48:17.998Z,1.80
2018-01-20T09:50:47.193Z,1.80
2018-01-20T09:53:24.073Z,1.80
2018-01-20T09:55:53.944Z,1.90
2018-01-20T09:58:22.678Z,1.90
2018-01-20T10:00:51.275Z,2.00
2018-01-20T10:03:19.876Z,2.00
2018-01-20T10:05:51.492Z,1.90
2018-01-20T10:08:23.687Z,1.90
2018-01-20T10:10:56.106Z,2.00
2018-01-20T10:13:34.358Z,2.20
2018-01-20T10:16:03.897Z,2.20
2018-01-20T10:18:32.835Z,2.20
2018-01-20T10:21:02.232Z,2.30
2018-01-20T10:23:30.788Z,2.30
2018-01-20T10:25:59.413Z,2.40
2018-01-20T10:28:28.823Z,2.40
2018-01-20T10:30:57.205Z,2.40
2018-01-20T10:33:25.774Z,2.60
2018-01-20T10:35:54.667Z,2.80
2018-01-20T10:38:23.137Z,2.50
2018-01-20T10:40:52.282Z,2.40
2018-01-20T10:43:27.864Z,2.30
2018-01-20T10:45:56.341Z,2.50
2018-01-20T10:48:24.710Z,2.60
2018-01-20T10:50:53.430Z,2.80
2018-01-20T10:53:22.881Z,2.90
2018-01-20T10:55:51.244Z,3.10
2018-01-20T10:58:19.853Z,3.40
2018-01-20T11:00:48.613Z,3.50
2018-01-20T11:03:18.826Z,3.70
2018-01-20T11:05:55.332Z,3.60
2018-01-20T11:08:23.884Z,3.60
2018-01-20T11:10:53.032Z,3.80
2018-01-20T11:13:21.628Z,3.80
2018-01-20T11:15:50.940Z,3.60
2018-01-20T11:18:19.318Z,3.60
2018-01-20T11:20:48.969Z,3.50
2018-01-20T11:23:18.297Z,3.40
2018-01-20T11:25:48.691Z,3.40
2018-01-20T11:28:17.868Z,3.20
2018-01-20T11:30:47.372Z,3.30
2018-01-20T11:33:15.843Z,3.30
2018-01-20T11:35:45.977Z,3.40
2018-01-20T11:38:16.546Z,3.50
2018-01-20T11:40:45.235Z,3.90
2018-01-20T11:43:13.623Z,3.90
2018-01-20T11:45:43.274Z,3.90
2018-01-20T11:48:12.813Z,4.00
2018-01-20T11:50:41.448Z,3.90
2018-01-20T11:53:17.944Z,3.90
2018-01-20T11:55:46.625Z,3.90
2018-01-20T11:58:15.284Z,3.90
2018-01-20T12:00:45.554Z,3.90
2018-01-20T12:03:23.444Z,3.60
2018-01-20T12:05:52.004Z,3.60
2018-01-20T12:08:21.142Z,4.00
2018-01-20T12:11:00.780Z,4.00
2018-01-20T12:13:29.142Z,4.00
2018-01-20T12:15:58.271Z,4.00
2018-01-20T12:18:26.748Z,4.00
2018-01-20T12:20:55.162Z,4.30
2018-01-20T12:23:23.580Z,4.40
2018-01-20T12:25:52.825Z,4.40
2018-01-20T12:28:21.195Z,4.50
2018-01-20T12:30:49.676Z,4.60
2018-01-20T12:33:18.146Z,5.00
2018-01-20T12:35:47.336Z,5.50
2018-01-20T12:38:16.486Z,5.40
2018-01-20T12:40:52.563Z,5.30
2018-01-20T12:43:28.539Z,5.00
2018-01-20T12:45:56.940Z,5.00
2018-01-20T12:48:26.200Z,5.10
2018-01-20T12:50:55.385Z,4.90
2018-01-20T12:53:23.734Z,4.90
2018-01-20T12:55:52.935Z,4.70
2018-01-20T12:58:22.233Z,4.80
2018-01-20T13:00:51.370Z,5.00
2018-01-20T13:03:27.780Z,5.00
2018-01-20T13:06:03.865Z,4.90
2018-01-20T13:08:33.206Z,4.90
2018-01-20T13:11:01.667Z,4.90
2018-01-20T13:13:30.031Z,4.90
2018-01-20T13:15:58.642Z,4.80
2018-01-20T13:18:27.042Z,4.90
2018-01-20T13:20:55.446Z,4.80
2018-01-20T13:23:23.940Z,4.90
2018-01-20T13:25:52.312Z,4.90
2018-01-20T13:28:20.897Z,5.00
2018-01-20T13:30:49.992Z,5.00
2018-01-20T13:33:18.411Z,4.90
2018-01-20T13:35:54.604Z,5.10
2018-01-20T13:38:31.345Z,5.20
2018-01-20T13:41:07.310Z,5.10
2018-01-20T13:43:39.993Z,5.20
2018-01-20T13:46:09.363Z,5.20
2018-01-20T13:48:41.780Z,5.20
2018-01-20T13:51:12.006Z,5.10
2018-01-20T13:53:40.438Z,5.00
2018-01-20T13:56:16.580Z,5.10
2018-01-20T13:58:52.545Z,5.10
2018-01-20T14:01:21.626Z,5.00
2018-01-20T14:03:50.005Z,4.90
2018-01-20T14:06:19.203Z,5.10
2018-01-20T14:08:48.345Z,5.00
2018-01-20T14:11:18.461Z,5.10
2018-01-20T14:13:46.908Z,5.10
2018-01-20T14:16:15.258Z,4.90
2018-01-20T14:18:51.450Z,4.80
2018-01-20T14:21:27.488Z,4.70
2018-01-20T14:23:55.890Z,4.60
2018-01-20T14:26:25.680Z,4.50
2018-01-20T14:28:54.151Z,4.50
2018-01-20T14:31:22.636Z,4.50
2018-01-20T14:33:51.066Z,4.50
2018-01-20T14:36:19.600Z,4.50
2018-01-20T14:38:47.980Z,4.40
2018-01-20T14:41:16.368Z,4.30
2018-01-20T14:43:45.944Z,4.30
2018-01-20T14:46:14.336Z,4.20
2018-01-20T14:48:42.787Z,4.20
2018-01-20T14:51:11.459Z,4.20
2018-01-20T14:53:39.840Z,4.20
2018-01-20T14:56:08.225Z,4.00
2018-01-20T14:58:44.595Z,3.90
2018-01-20T15:01:13.386Z,4.00
2018-01-20T15:03:41.789Z,4.10
2018-01-20T15:06:10.251Z,4.00
2018-01-20T15:08:38.673Z,4.00
2018-01-20T15:11:07.863Z,3.80
2018-01-20T15:13:36.435Z,3.80
2018-01-20T15:16:05.598Z,3.70
2018-01-20T15:18:34.016Z,3.70
2018-01-20T15:21:02.625Z,3.60
2018-01-20T15:23:31.793Z,3.70
2018-01-20T15:26:00.228Z,3.70
2018-01-20T15:28:28.827Z,3.70
2018-01-20T15:30:57.220Z,3.80
2018-01-20T15:33:25.591Z,3.80
2018-01-20T15:35:56.600Z,3.80
2018-01-20T15:38:24.974Z,3.80
2018-01-20T15:40:53.364Z,3.80
2018-01-20T15:43:21.979Z,3.90
2018-01-20T15:45:50.326Z,3.80
2018-01-20T15:48:18.764Z,3.70
2018-01-20T15:50:48.023Z,3.70
2018-01-20T15:53:16.484Z,3.70
2018-01-20T15:55:45.318Z,3.70
2018-01-20T15:58:14.071Z,3.70
2018-01-20T16:00:44.375Z,3.60
2018-01-20T16:03:14.832Z,3.50
2018-01-20T16:05:43.672Z,3.50
2018-01-20T16:08:13.299Z,3.60
2018-01-20T16:10:41.952Z,3.50
2018-01-20T16:13:11.134Z,3.50
2018-01-20T16:15:40.555Z,3.60
2018-01-20T16:18:08.938Z,3.60
2018-01-20T16:20:39.118Z,3.50
2018-01-20T16:23:14.740Z,3.50
2018-01-20T16:25:43.751Z,3.50
2018-01-20T16:28:12.901Z,3.20
2018-01-20T16:30:41.348Z,3.10
2018-01-20T16:33:09.855Z,3.20
2018-01-20T16:35:38.239Z,3.00
2018-01-20T16:38:06.876Z,3.00
2018-01-20T16:40:43.760Z,3.00
2018-01-20T16:43:20.794Z,2.90
2018-01-20T16:45:57.502Z,2.90
2018-01-20T16:48:28.470Z,2.80
2018-01-20T16:50:58.024Z,2.70
2018-01-20T16:53:26.765Z,2.70
2018-01-20T16:56:02.541Z,2.60
2018-01-20T16:58:31.687Z,2.60
2018-01-20T17:01:00.116Z,2.60
2018-01-20T17:03:29.625Z,2.60
2018-01-20T17:05:58.239Z,2.60
2018-01-20T17:08:26.651Z,2.60
2018-01-20T17:10:55.086Z,2.50
2018-01-20T17:13:31.533Z,2.50
2018-01-20T17:16:00.813Z,2.20
2018-01-20T17:18:30.012Z,2.00
2018-01-20T17:20:58.414Z,2.00
2018-01-20T17:23:27.783Z,1.80
2018-01-20T17:25:56.186Z,1.80
2018-01-20T17:28:24.574Z,1.70
2018-01-20T17:30:53.804Z,1.50
2018-01-20T17:33:22.251Z,1.50
2018-01-20T17:35:50.651Z,1.50
2018-01-20T17:38:27.653Z,1.50
2018-01-20T17:40:56.113Z,1.50
2018-01-20T17:43:24.850Z,1.50
2018-01-20T17:45:53.226Z,1.50
2018-01-20T17:48:22.793Z,1.40
2018-01-20T17:50:52.027Z,1.30
2018-01-20T17:53:21.215Z,1.30
2018-01-20T17:55:59.452Z,1.40
2018-01-20T17:58:35.529Z,1.40
2018-01-20T18:01:11.926Z,1.40
2018-01-20T18:03:41.436Z,1.30
2018-01-20T18:06:10.603Z,1.30
2018-01-20T18:08:39.145Z,1.30
2018-01-20T18:11:15.551Z,1.30
2018-01-20T18:13:44.641Z,1.30
2018-01-20T18:16:13.091Z,1.40
2018-01-20T18:18:41.499Z,1.30
2018-01-20T18:21:09.981Z,1.30
2018-01-20T18:23:39.121Z,1.30
2018-01-20T18:26:15.559Z,1.30
2018-01-20T18:28:44.093Z,1.30
2018-01-20T18:31:12.478Z,1.30
2018-01-20T18:33:40.827Z,1.40
2018-01-20T18:36:09.244Z,1.40
2018-01-20T18:38:37.953Z,1.40
2018-01-20T18:41:07.624Z,1.50
2018-01-20T18:43:37.335Z,1.40
2018-01-20T18:46:05.870Z,1.40
2018-01-20T18:48:34.380Z,1.40
2018-01-20T18:51:03.767Z,1.50
2018-01-20T18:53:32.232Z,1.50
2018-01-20T18:56:00.685Z,1.50
2018-01-20T18:58:29.242Z,1.50
2018-01-20T19:00:58.373Z,1.50
2018-01-20T19:03:26.775Z,1.50
2018-01-20T19:05:55.366Z,1.50
2018-01-20T19:08:24.516Z,1.50
2018-01-20T19:10:53.676Z,1.50
2018-01-20T19:13:23.126Z,1.50
2018-01-20T19:15:51.545Z,1.50
2018-01-20T19:18:20.070Z,1.40
2018-01-20T19:20:48.592Z,1.30
2018-01-20T19:23:17.046Z,1.30
2018-01-20T19:25:46.301Z,1.30
2018-01-20T19:28:23.309Z,1.30
2018-01-20T19:30:54.403Z,1.40
2018-01-20T19:33:23.637Z,1.50
2018-01-20T19:36:00.474Z,1.50
2018-01-20T19:38:37.598Z,1.50
2018-01-20T19:41:14.170Z,1.50
2018-01-20T19:43:42.725Z,1.50
2018-01-20T19:46:11.103Z,1.40
2018-01-20T19:48:39.477Z,1.50
2018-01-20T19:51:08.851Z,1.50
2018-01-20T19:53:38.005Z,1.40
2018-01-20T19:56:06.392Z,1.40
2018-01-20T19:58:34.978Z,1.40
2018-01-20T20:01:03.359Z,1.40
2018-01-20T20:03:31.746Z,1.40
2018-01-20T20:06:07.931Z,1.40
2018-01-20T20:08:43.948Z,1.30
2018-01-20T20:11:13.155Z,1.40
2018-01-20T20:13:43.695Z,1.30
2018-01-20T20:16:12.623Z,1.30
2018-01-20T20:18:46.716Z,1.30
2018-01-20T20:21:16.602Z,1.30
2018-01-20T20:23:45.176Z,1.30
2018-01-20T20:26:31.037Z,1.30
2018-01-20T20:29:01.621Z,1.30
2018-01-20T20:31:32.083Z,1.30
2018-01-20T20:34:00.470Z,1.30
2018-01-20T20:36:35.202Z,1.30
2018-01-20T20:39:05.509Z,1.30
2018-01-20T20:41:34.522Z,1.20
2018-01-20T20:44:03.050Z,1.30
2018-01-20T20:46:32.199Z,1.30
2018-01-20T20:49:00.832Z,1.30
2018-01-20T20:51:29.230Z,1.30
2018-01-20T20:53:57.678Z,1.20
2018-01-20T20:56:34.099Z,1.30
2018-01-20T20:59:10.265Z,1.30
2018-01-20T21:01:46.045Z,1.30
2018-01-20T21:04:15.031Z,1.30
2018-01-20T21:06:43.681Z,1.30
2018-01-20T21:09:12.424Z,1.30
2018-01-20T21:11:48.941Z,1.30
2018-01-20T21:14:18.340Z,1.40
2018-01-20T21:16:47.809Z,1.40
2018-01-20T21:19:16.463Z,1.40
2018-01-20T21:21:53.846Z,1.40
2018-01-20T21:24:29.651Z,1.40
2018-01-20T21:26:59.210Z,1.50
2018-01-20T21:29:29.493Z,1.50
2018-01-20T21:31:59.071Z,1.60
2018-01-20T21:34:29.147Z,1.60
2018-01-20T21:36:59.616Z,1.70
2018-01-20T21:39:28.144Z,1.60
2018-01-20T21:41:56.766Z,1.60
2018-01-20T21:44:26.395Z,1.70
2018-01-20T21:46:54.906Z,1.80
2018-01-20T21:49:24.329Z,1.80
2018-01-20T21:51:52.844Z,1.80
2018-01-20T21:54:21.254Z,1.90
2018-01-20T21:56:50.458Z,1.90
2018-01-20T21:59:18.850Z,1.90
2018-01-20T22:01:47.308Z,1.90
2018-01-20T22:04:15.720Z,1.90
2018-01-20T22:06:44.112Z,2.00
2018-01-20T22:09:12.738Z,2.00
2018-01-20T22:11:41.112Z,2.00
2018-01-20T22:14:09.620Z,2.00
2018-01-20T22:16:39.015Z,2.00
2018-01-20T22:19:07.369Z,1.90
2018-01-20T22:21:35.873Z,1.90
2018-01-20T22:24:12.061Z,2.00
2018-01-20T22:26:49.245Z,2.00
2018-01-20T22:29:17.715Z,2.00
2018-01-20T22:31:46.147Z,2.00
2018-01-20T22:34:15.533Z,2.10
2018-01-20T22:36:44.172Z,2.10
2018-01-20T22:39:12.601Z,2.10
2018-01-20T22:41:40.977Z,2.10
2018-01-20T22:44:17.298Z,2.10
2018-01-20T22:46:45.778Z,2.10
2018-01-20T22:49:14.324Z,2.10
2018-01-20T22:51:43.478Z,2.20
2018-01-20T22:54:12.611Z,2.20
2018-01-20T22:56:48.376Z,2.20
2018-01-20T22:59:17.686Z,2.20
2018-01-20T23:01:46.825Z,2.20
2018-01-20T23:04:15.192Z,2.20
2018-01-20T23:06:45.303Z,2.20
2018-01-20T23:09:14.426Z,2.30
2018-01-20T23:11:42.762Z,2.30
2018-01-20T23:14:12.689Z,2.40
2018-01-20T23:16:41.850Z,2.40
2018-01-20T23:19:10.220Z,2.40
2018-01-20T23:21:46.170Z,2.40
2018-01-20T23:24:14.540Z,2.50
2018-01-20T23:26:43.672Z,2.60
2018-01-20T23:29:12.183Z,2.50
2018-01-20T23:31:40.572Z,2.60
2018-01-20T23:34:08.946Z,2.60
2018-01-20T23:36:37.398Z,2.70
2018-01-20T23:39:05.808Z,2.70
2018-01-20T23:41:34.178Z,2.60
2018-01-20T23:44:10.354Z,2.60
2018-01-20T23:46:38.778Z,2.60
2018-01-20T23:49:07.913Z,2.70
2018-01-20T23:51:36.323Z,2.70
2018-01-20T23:54:05.661Z,2.60
2018-01-20T23:56:34.799Z,2.60
2018-01-20T23:59:03.199Z,2.60
